Time;durP1;ratioP1;P1;durP2;ratioP2;P2;SDS_P1;SDS_P2;PMS_P1;PMS_P2;Temp;Humidity;BMP_temperature;BMP_pressure;BME280_temperature;BME280_humidity;BME280_pressure;Samples;Min_cycle;Max_cycle;Signal;HPM_P1;HPM_P2
2022/03/17 00:00:21;;;;;;;;;;;;;;;13.91;100.00;99417.47;5061880;28;19920;-61
2022/03/17 00:02:46;;;;;;;;;;;;;;;13.71;100.00;99413.94;5059966;28;19969;-61
2022/03/17 00:05:12;;;;;;;;;;;;;;;13.65;100.00;99416.75;5060712;28;19916;-61
2022/03/17 00:07:37;;;;;;;;;;;;;;;13.62;100.00;99411.69;5062153;28;19947;-61
2022/03/17 00:10:05;;;;;;;;;;;;;;;13.69;100.00;99413.16;5077228;28;19920;-61
2022/03/17 00:12:31;;;;;;;;;;;;;;;13.58;100.00;99412.72;5061045;28;19920;-61
2022/03/17 00:14:56;;;;;;;;;;;;;;;13.32;100.00;99413.66;5061492;28;19924;-62
2022/03/17 00:17:21;;;;;;;;;;;;;;;13.87;100.00;99410.75;5062303;28;19916;-61
2022/03/17 00:19:47;;;;;;;;;;;;;;;13.67;100.00;99398.59;5061671;28;20348;-61
2022/03/17 00:22:15;;;;;;;;;;;;;;;13.83;100.00;99398.84;5061130;28;19948;-61
2022/03/17 00:24:41;;;;;;;;;;;;;;;13.56;100.00;99401.56;5061750;28;19917;-61
2022/03/17 00:27:08;;;;;;;;;;;;;;;13.57;100.00;99396.34;5061518;28;20355;-61
2022/03/17 00:29:33;;;;;;;;;;;;;;;13.12;100.00;99385.94;5035844;28;20590;-62
2022/03/17 00:31:59;;;;;;;;;;;;;;;13.71;100.00;99385.47;5059114;28;19927;-61
2022/03/17 00:34:24;;;;;;;;;;;;;;;13.39;100.00;99390.13;5061047;28;19923;-60
2022/03/17 00:36:50;;;;;;;;;;;;;;;13.28;100.00;99387.06;5060233;28;20026;-61
2022/03/17 00:39:15;;;;;;;;;;;;;;;13.51;100.00;99385.38;5061398;28;19936;-60
2022/03/17 00:41:41;;;;;;;;;;;;;;;13.20;100.00;99394.22;5059917;28;19970;-60
2022/03/17 00:44:06;;;;;;;;;;;;;;;13.15;100.00;99389.22;5061264;28;20389;-61
2022/03/17 00:46:32;;;;;;;;;;;;;;;13.37;100.00;99391.06;5060948;28;19963;-61
2022/03/17 00:48:57;;;;;;;;;;;;;;;13.78;100.00;99396.44;5060734;28;19925;-61
2022/03/17 00:51:23;;;;;;;;;;;;;;;13.34;100.00;99406.69;5060276;28;20394;-62
2022/03/17 00:53:48;;;;;;;;;;;;;;;13.52;100.00;99405.16;5060785;28;19924;-60
2022/03/17 00:56:13;;;;;;;;;;;;;;;13.51;100.00;99398.31;5060252;28;19916;-61
2022/03/17 00:58:39;;;;;;;;;;;;;;;13.28;100.00;99396.59;5076404;28;19925;-61
2022/03/17 01:01:04;;;;;;;;;;;;;;;13.43;100.00;99388.25;5060094;28;20332;-61
2022/03/17 01:03:29;;;;;;;;;;;;;;;13.78;100.00;99406.78;5060844;28;19921;-61
2022/03/17 01:05:55;;;;;;;;;;;;;;;13.46;100.00;99395.06;5061074;28;19920;-61
2022/03/17 01:08:20;;;;;;;;;;;;;;;13.69;100.00;99401.97;5060166;28;19920;-62
2022/03/17 01:10:45;;;;;;;;;;;;;;;13.28;100.00;99396.59;5059155;28;20473;-61
2022/03/17 01:13:11;;;;;;;;;;;;;;;13.48;100.00;99396.69;5075689;28;19920;-62
2022/03/17 01:15:36;;;;;;;;;;;;;;;13.07;100.00;99392.97;5061162;28;19927;-60
2022/03/17 01:18:02;;;;;;;;;;;;;;;13.39;100.00;99400.47;5060169;28;20023;-61
2022/03/17 01:20:29;;;;;;;;;;;;;;;13.16;100.00;99408.19;5060797;28;19920;-61
2022/03/17 01:22:54;;;;;;;;;;;;;;;13.62;100.00;99401.34;5060168;28;19920;-61
2022/03/17 01:25:19;;;;;;;;;;;;;;;13.37;100.00;99411.78;5059251;28;21021;-60
2022/03/17 01:27:45;;;;;;;;;;;;;;;13.19;100.00;99397.72;5060669;28;19920;-61
2022/03/17 01:30:10;;;;;;;;;;;;;;;12.86;100.00;99389.41;5060670;28;20394;-60
2022/03/17 01:32:37;;;;;;;;;;;;;;;13.22;100.00;99401.94;5059848;28;19920;-61
2022/03/17 01:35:03;;;;;;;;;;;;;;;13.55;100.00;99397.31;5060205;28;19916;-61
2022/03/17 01:37:28;;;;;;;;;;;;;;;13.26;100.00;99394.00;5035826;28;19920;-61
2022/03/17 01:39:54;;;;;;;;;;;;;;;13.80;100.00;99394.63;5059467;28;20440;-62
2022/03/17 01:42:19;;;;;;;;;;;;;;;13.30;100.00;99390.47;5075685;28;19943;-61
2022/03/17 01:44:45;;;;;;;;;;;;;;;13.27;100.00;99387.94;5060261;28;20149;-60
2022/03/17 01:47:28;;;;;;;;;;;;;;;13.38;100.00;99380.66;5059935;28;20016;-61
2022/03/17 01:49:55;;;;;;;;;;;;;;;13.89;100.00;99377.84;5059949;28;20381;-61
2022/03/17 01:52:20;;;;;;;;;;;;;;;14.17;100.00;99360.31;5059270;28;20019;-61
2022/03/17 01:54:45;;;;;;;;;;;;;;;13.72;100.00;99370.78;5060338;28;20458;-61
2022/03/17 01:57:11;;;;;;;;;;;;;;;13.98;100.00;99367.13;5059628;28;20657;-61
2022/03/17 01:59:37;;;;;;;;;;;;;;;13.52;100.00;99374.13;5059663;28;20382;-61
2022/03/17 02:02:06;;;;;;;;;;;;;;;13.78;100.00;99363.59;5059312;28;19921;-61
2022/03/17 02:04:33;;;;;;;;;;;;;;;13.91;100.00;99358.81;5059786;28;19965;-61
2022/03/17 02:06:58;;;;;;;;;;;;;;;13.79;100.00;99367.88;5059654;28;19925;-60
2022/03/17 02:09:26;;;;;;;;;;;;;;;13.63;100.00;99358.19;5060015;28;19913;-61
2022/03/17 02:14:51;;;;;;;;;;;;;;;13.81;100.00;99360.88;5060726;28;20610;-61
2022/03/17 02:17:16;;;;;;;;;;;;;;;13.33;100.00;99355.88;5058741;28;19962;-61
2022/03/17 02:19:42;;;;;;;;;;;;;;;13.39;100.00;99348.72;5058892;28;19924;-60
2022/03/17 02:22:08;;;;;;;;;;;;;;;13.23;100.00;99349.31;5058227;28;19978;-61
2022/03/17 02:27:18;;;;;;;;;;;;;;;13.69;100.00;99360.53;5059998;28;19990;-61
2022/03/17 02:29:44;;;;;;;;;;;;;;;13.68;100.00;99344.16;5032979;28;19927;-61
2022/03/17 02:32:09;;;;;;;;;;;;;;;13.19;100.00;99343.41;5059079;28;19924;-61
2022/03/17 02:34:35;;;;;;;;;;;;;;;13.25;100.00;99344.91;5059835;28;19928;-61
2022/03/17 02:37:01;;;;;;;;;;;;;;;13.42;100.00;99337.41;5074021;28;19920;-61
2022/03/17 02:39:26;;;;;;;;;;;;;;;13.23;100.00;99334.66;5058015;28;19946;-61
2022/03/17 02:41:51;;;;;;;;;;;;;;;13.51;100.00;99336.22;5058888;28;19920;-61
2022/03/17 02:44:16;;;;;;;;;;;;;;;13.01;100.00;99333.75;5059645;28;19953;-61
2022/03/17 02:46:42;;;;;;;;;;;;;;;13.10;100.00;99329.09;5059910;28;19922;-61
2022/03/17 02:49:07;;;;;;;;;;;;;;;13.21;100.00;99320.09;5059681;28;19943;-61
2022/03/17 02:51:32;;;;;;;;;;;;;;;13.03;100.00;99329.38;5058772;28;20293;-61
2022/03/17 02:53:58;;;;;;;;;;;;;;;12.61;100.00;99327.41;5059807;28;20297;-61
2022/03/17 02:56:24;;;;;;;;;;;;;;;13.28;100.00;99319.84;5059861;28;19916;-61
2022/03/17 02:58:50;;;;;;;;;;;;;;;13.00;100.00;99311.38;5059678;28;20410;-61
2022/03/17 03:01:15;;;;;;;;;;;;;;;13.17;100.00;99316.78;5041265;28;19923;-61
2022/03/17 03:03:40;;;;;;;;;;;;;;;13.41;100.00;99320.22;5058047;28;20386;-61
2022/03/17 03:06:06;;;;;;;;;;;;;;;12.63;100.00;99321.28;5059348;28;19978;-61
2022/03/17 03:08:32;;;;;;;;;;;;;;;12.84;100.00;99319.72;5041391;28;19917;-61
2022/03/17 03:10:57;;;;;;;;;;;;;;;12.80;100.00;99327.63;5031842;28;19917;-61
2022/03/17 03:13:23;;;;;;;;;;;;;;;12.60;100.00;99325.75;5058621;28;19921;-61
2022/03/17 03:15:50;;;;;;;;;;;;;;;12.96;100.00;99328.75;5058835;28;19960;-61
2022/03/17 03:18:15;;;;;;;;;;;;;;;13.00;100.00;99325.16;5058406;28;19924;-61
2022/03/17 03:20:41;;;;;;;;;;;;;;;12.69;100.00;99325.41;5058135;28;19919;-61
2022/03/17 03:23:06;;;;;;;;;;;;;;;12.68;100.00;99326.31;5058683;28;19927;-60
2022/03/17 03:25:31;;;;;;;;;;;;;;;12.65;100.00;99335.00;5058170;28;20324;-61
2022/03/17 03:27:57;;;;;;;;;;;;;;;13.02;100.00;99338.00;5058791;28;19978;-62
2022/03/17 03:30:22;;;;;;;;;;;;;;;12.33;100.00;99338.69;5058063;28;20003;-61
2022/03/17 03:32:47;;;;;;;;;;;;;;;12.69;100.00;99340.91;5059108;28;19920;-61
2022/03/17 03:37:57;;;;;;;;;;;;;;;12.83;100.00;99343.84;5075000;28;21092;-60
2022/03/17 03:40:22;;;;;;;;;;;;;;;13.01;100.00;99338.94;5061858;28;19924;-60
2022/03/17 03:42:48;;;;;;;;;;;;;;;12.74;100.00;99345.03;5061369;28;19999;-60
2022/03/17 03:45:13;;;;;;;;;;;;;;;12.65;100.00;99358.25;5062670;28;19939;-61
2022/03/17 03:47:38;;;;;;;;;;;;;;;12.80;100.00;99359.47;5062732;28;19970;-60
2022/03/17 03:50:04;;;;;;;;;;;;;;;13.20;100.00;99360.59;5062395;28;19913;-60
2022/03/17 03:52:29;;;;;;;;;;;;;;;13.03;100.00;99371.59;5063554;28;20370;-60
2022/03/17 03:54:54;;;;;;;;;;;;;;;13.44;100.00;99377.00;5062978;28;19920;-60
2022/03/17 03:57:20;;;;;;;;;;;;;;;12.91;100.00;99375.44;5061455;28;20265;-61
2022/03/17 03:59:46;;;;;;;;;;;;;;;13.02;100.00;99390.56;5058898;28;20007;-60
2022/03/17 04:02:11;;;;;;;;;;;;;;;13.00;100.00;99392.38;5054334;28;19920;-60
2022/03/17 04:04:38;;;;;;;;;;;;;;;12.70;100.00;99389.09;5062195;28;20283;-60
2022/03/17 04:07:04;;;;;;;;;;;;;;;12.80;100.00;99400.84;5061271;28;19920;-61
2022/03/17 04:09:31;;;;;;;;;;;;;;;12.79;100.00;99401.72;5061569;28;19920;-61
2022/03/17 04:11:56;;;;;;;;;;;;;;;13.00;100.00;99396.69;5060353;28;20301;-60
2022/03/17 04:14:22;;;;;;;;;;;;;;;13.21;100.00;99401.09;5062299;28;19917;-59
2022/03/17 04:16:47;;;;;;;;;;;;;;;13.31;100.00;99407.66;5061299;28;19945;-60
2022/03/17 04:19:15;;;;;;;;;;;;;;;13.18;100.00;99411.53;5061690;28;19931;-60
2022/03/17 04:21:40;;;;;;;;;;;;;;;13.33;100.00;99411.03;5061981;28;19979;-60
2022/03/17 04:24:06;;;;;;;;;;;;;;;12.70;100.00;99414.94;5062166;28;20477;-61
2022/03/17 04:26:31;;;;;;;;;;;;;;;12.88;100.00;99419.50;5061622;28;20382;-60
2022/03/17 04:28:57;;;;;;;;;;;;;;;12.47;100.00;99424.31;5061753;28;19966;-60
2022/03/17 04:31:22;;;;;;;;;;;;;;;12.69;100.00;99418.44;5062065;28;19923;-60
2022/03/17 04:33:48;;;;;;;;;;;;;;;12.85;100.00;99413.59;5061794;28;19920;-60
2022/03/17 04:36:13;;;;;;;;;;;;;;;13.03;100.00;99419.88;5061618;28;19946;-60
2022/03/17 04:38:39;;;;;;;;;;;;;;;13.15;100.00;99422.00;5061266;28;19920;-60
2022/03/17 04:41:04;;;;;;;;;;;;;;;12.96;100.00;99425.25;5060911;28;19931;-60
2022/03/17 04:43:30;;;;;;;;;;;;;;;12.80;100.00;99424.09;5061821;28;19969;-59
2022/03/17 04:45:55;;;;;;;;;;;;;;;12.97;100.00;99426.91;5061993;28;19913;-60
2022/03/17 04:48:20;;;;;;;;;;;;;;;13.07;100.00;99430.06;5061299;28;19928;-61
2022/03/17 04:50:45;;;;;;;;;;;;;;;13.42;100.00;99434.88;5060684;28;20381;-60
2022/03/17 04:56:20;;;;;;;;;;;;;;;13.04;100.00;99444.81;5060614;28;19928;-61
2022/03/17 04:58:45;;;;;;;;;;;;;;;13.44;100.00;99448.59;5060721;28;20470;-61
2022/03/17 05:01:12;;;;;;;;;;;;;;;13.38;100.00;99454.84;5061553;28;20015;-61
2022/03/17 05:03:37;;;;;;;;;;;;;;;13.28;100.00;99449.16;5061594;28;19916;-61
2022/03/17 05:06:03;;;;;;;;;;;;;;;12.51;100.00;99446.56;5060484;28;20374;-60
2022/03/17 05:11:37;;;;;;;;;;;;;;;12.62;100.00;99453.13;5056982;28;20477;-62
2022/03/17 05:14:03;;;;;;;;;;;;;;;12.97;100.00;99445.00;5061072;28;19955;-61
2022/03/17 05:16:28;;;;;;;;;;;;;;;12.91;100.00;99445.25;5060358;28;19993;-63
2022/03/17 05:18:54;;;;;;;;;;;;;;;12.65;100.00;99461.63;5060247;28;19920;-61
2022/03/17 05:21:19;;;;;;;;;;;;;;;12.75;100.00;99464.75;5060425;28;19921;-62
2022/03/17 05:23:44;;;;;;;;;;;;;;;13.00;100.00;99467.38;5060990;28;19920;-61
2022/03/17 05:26:11;;;;;;;;;;;;;;;12.95;100.00;99477.88;5076086;28;20370;-61
2022/03/17 05:28:37;;;;;;;;;;;;;;;13.24;100.00;99478.56;5060447;28;19920;-60
2022/03/17 05:31:02;;;;;;;;;;;;;;;13.02;100.00;99485.38;5061006;28;19912;-60
2022/03/17 05:33:31;;;;;;;;;;;;;;;13.04;100.00;99496.53;5060807;28;19927;-61
2022/03/17 05:35:56;;;;;;;;;;;;;;;13.14;100.00;99498.75;5060609;28;19916;-61
2022/03/17 05:38:21;;;;;;;;;;;;;;;13.28;100.00;99500.88;5059585;28;19921;-59
2022/03/17 05:40:47;;;;;;;;;;;;;;;13.65;100.00;99503.91;5060501;28;19924;-61
2022/03/17 05:43:12;;;;;;;;;;;;;;;13.06;100.00;99510.25;5060986;28;19958;-61
2022/03/17 05:45:38;;;;;;;;;;;;;;;13.06;100.00;99512.84;5059369;28;19924;-62
2022/03/17 05:48:04;;;;;;;;;;;;;;;13.68;100.00;99509.78;5060082;28;19924;-61
2022/03/17 05:50:34;;;;;;;;;;;;;;;13.39;100.00;99514.28;5074221;28;19968;-61
2022/03/17 05:53:03;;;;;;;;;;;;;;;13.89;100.00;99520.25;5059392;28;19920;-62
2022/03/17 05:55:37;;;;;;;;;;;;;;;13.81;100.00;99521.41;5058756;28;20072;-61
2022/03/17 05:58:03;;;;;;;;;;;;;;;13.65;100.00;99530.63;5041961;28;19921;-61
2022/03/17 06:00:29;;;;;;;;;;;;;;;13.83;100.00;99543.81;5031256;28;19920;-61
2022/03/17 06:02:55;;;;;;;;;;;;;;;13.80;100.00;99550.78;5060498;28;20259;-61
2022/03/17 06:05:25;;;;;;;;;;;;;;;14.02;100.00;99553.41;5060186;28;19927;-61
2022/03/17 06:07:51;;;;;;;;;;;;;;;13.91;100.00;99563.34;5032510;28;21353;-60
2022/03/17 06:10:21;;;;;;;;;;;;;;;13.84;100.00;99561.84;5059832;28;19931;-61
2022/03/17 06:12:51;;;;;;;;;;;;;;;13.44;100.00;99578.81;5060341;28;20014;-61
2022/03/17 06:15:16;;;;;;;;;;;;;;;13.23;100.00;99575.19;5060029;28;19916;-61
2022/03/17 06:17:43;;;;;;;;;;;;;;;13.30;100.00;99576.69;5060623;28;19919;-60
2022/03/17 06:20:09;;;;;;;;;;;;;;;13.28;100.00;99577.66;5059760;28;19931;-61
2022/03/17 06:31:49;;;;;;;;;;;;;;;13.72;100.00;99593.38;5055161;28;20380;-61
2022/03/17 06:34:32;;;;;;;;;;;;;;;13.80;100.00;99594.78;5031141;28;19932;-61
2022/03/17 06:43:16;;;;;;;;;;;;;;;13.69;100.00;99609.84;5059300;28;20344;-61
2022/03/17 06:45:42;;;;;;;;;;;;;;;13.74;100.00;99614.88;5061194;28;19917;-60
2022/03/17 06:48:08;;;;;;;;;;;;;;;14.06;100.00;99621.47;5060684;28;19940;-60
2022/03/17 06:50:33;;;;;;;;;;;;;;;14.32;100.00;99630.91;5061477;28;19935;-59
2022/03/17 06:52:58;;;;;;;;;;;;;;;14.59;100.00;99630.78;5060235;28;19927;-58
2022/03/17 06:55:24;;;;;;;;;;;;;;;14.34;100.00;99646.38;5061925;28;20305;-60
2022/03/17 06:57:52;;;;;;;;;;;;;;;13.94;100.00;99646.09;5061166;28;19997;-60
2022/03/17 07:21:55;;;;;;;;;;;;;;;13.88;100.00;99710.19;5060842;28;20378;-61
2022/03/17 07:24:20;;;;;;;;;;;;;;;13.78;100.00;99715.66;5062464;28;19927;-61
2022/03/17 07:26:46;;;;;;;;;;;;;;;14.10;100.00;99724.09;5064475;28;19920;-61
2022/03/17 07:29:11;;;;;;;;;;;;;;;14.10;100.00;99721.50;5065011;28;20400;-61
2022/03/17 07:31:36;;;;;;;;;;;;;;;14.39;100.00;99735.13;5068271;28;19924;-61
2022/03/17 07:34:02;;;;;;;;;;;;;;;13.98;100.00;99734.84;5044368;28;20023;-60
2022/03/17 07:36:28;;;;;;;;;;;;;;;14.24;100.00;99746.91;5086940;28;19916;-60
2022/03/17 07:38:53;;;;;;;;;;;;;;;14.25;100.00;99753.78;5070843;28;20032;-59
2022/03/17 07:41:19;;;;;;;;;;;;;;;14.16;100.00;99769.63;5070485;28;19919;-60
2022/03/17 07:43:44;;;;;;;;;;;;;;;12.69;100.00;99785.41;5068416;28;19916;-61
2022/03/17 07:46:10;;;;;;;;;;;;;;;13.15;100.00;99791.81;5037111;28;19999;-62
2022/03/17 07:48:36;;;;;;;;;;;;;;;13.32;100.00;99797.38;5061353;28;20453;-62
2022/03/17 07:51:01;;;;;;;;;;;;;;;13.77;100.00;99799.41;5062673;28;19916;-63
2022/03/17 07:53:27;;;;;;;;;;;;;;;13.34;100.00;99800.78;5062678;28;19990;-63
2022/03/17 07:55:54;;;;;;;;;;;;;;;13.70;100.00;99808.25;5077434;28;19916;-62
2022/03/17 07:58:20;;;;;;;;;;;;;;;13.71;100.00;99809.97;5063159;28;19999;-63
2022/03/17 08:00:46;;;;;;;;;;;;;;;12.43;100.00;99825.72;5062732;28;19991;-62
2022/03/17 08:03:11;;;;;;;;;;;;;;;13.98;100.00;99834.13;5061884;28;20036;-62
2022/03/17 08:05:37;;;;;;;;;;;;;;;12.75;100.00;99847.28;5062071;28;19948;-62
2022/03/17 08:11:05;;;;;;;;;;;;;;;12.63;100.00;99857.91;5059469;28;20408;-62
2022/03/17 08:13:40;;;;;;;;;;;;;;;11.68;100.00;99859.34;5062752;28;19912;-61
2022/03/17 08:22:14;;;;;;;;;;;;;;;10.26;100.00;99884.44;5060955;28;19924;-61
2022/03/17 08:24:39;;;;;;;;;;;;;;;9.74;100.00;99889.53;5061878;28;21008;-61
2022/03/17 08:27:05;;;;;;;;;;;;;;;9.29;100.00;99905.56;5060719;28;19920;-61
2022/03/17 08:29:31;;;;;;;;;;;;;;;9.67;100.00;99908.50;5062289;28;19917;-62
2022/03/17 08:31:56;;;;;;;;;;;;;;;9.27;100.00;99921.88;5076679;28;20408;-63
2022/03/17 08:41:05;;;;;;;;;;;;;;;8.94;81.53;99962.47;5056155;28;19928;-62
2022/03/17 08:43:36;;;;;;;;;;;;;;;9.05;76.11;99965.78;5062682;28;20007;-61
2022/03/17 08:51:30;;;;;;;;;;;;;;;9.08;64.28;100001.75;5062246;28;19923;-61
2022/03/17 08:53:56;;;;;;;;;;;;;;;8.68;65.57;100007.22;5034524;28;19920;-62
2022/03/17 08:56:21;;;;;;;;;;;;;;;8.73;61.41;100014.88;5062354;28;19927;-61
2022/03/17 08:58:47;;;;;;;;;;;;;;;9.30;58.92;100027.22;5062205;28;19920;-60
2022/03/17 09:01:12;;;;;;;;;;;;;;;9.01;62.14;100033.50;5061806;28;19928;-63
2022/03/17 09:03:37;;;;;;;;;;;;;;;9.20;61.37;100034.16;5060974;28;19925;-61
2022/03/17 09:06:03;;;;;;;;;;;;;;;9.10;61.11;100032.53;5062663;28;19916;-62
2022/03/17 09:08:31;;;;;;;;;;;;;;;9.43;61.22;100052.78;5061106;28;19924;-62
2022/03/17 09:10:56;;;;;;;;;;;;;;;9.13;63.74;100048.78;5061548;28;19916;-62
2022/03/17 09:13:22;;;;;;;;;;;;;;;9.69;62.69;100063.66;5061624;28;19970;-62
2022/03/17 09:19:03;;;;;;;;;;;;;;;9.02;56.95;100062.59;5058781;28;19982;-62
2022/03/17 09:21:28;;;;;;;;;;;;;;;9.07;57.42;100069.41;5061219;28;20987;-60
2022/03/17 09:23:54;;;;;;;;;;;;;;;8.95;59.02;100082.34;5060992;28;20046;-60
2022/03/17 09:26:19;;;;;;;;;;;;;;;8.92;60.34;100085.81;5060358;28;19924;-62
2022/03/17 09:28:45;;;;;;;;;;;;;;;9.04;60.53;100094.28;5060419;28;19947;-61
2022/03/17 09:31:28;;;;;;;;;;;;;;;8.66;60.83;100093.69;5041629;28;20615;-62
2022/03/17 09:33:55;;;;;;;;;;;;;;;8.84;60.71;100100.41;5059498;28;19912;-62
2022/03/17 09:36:21;;;;;;;;;;;;;;;8.52;62.80;100113.47;5056954;28;19920;-61
2022/03/17 09:42:05;;;;;;;;;;;;;;;8.81;59.81;100110.72;5058841;28;19931;-62
2022/03/17 09:44:31;;;;;;;;;;;;;;;9.09;61.60;100126.78;5059630;28;19931;-62
2022/03/17 09:46:56;;;;;;;;;;;;;;;9.24;62.62;100124.94;5060098;28;19916;-62
2022/03/17 09:49:25;;;;;;;;;;;;;;;8.63;67.88;100142.50;5075676;28;19920;-61
2022/03/17 09:51:50;;;;;;;;;;;;;;;8.61;66.90;100146.78;5061220;28;19917;-62
2022/03/17 09:54:15;;;;;;;;;;;;;;;8.49;66.91;100140.00;5060571;28;19916;-61
2022/03/17 09:56:40;;;;;;;;;;;;;;;8.71;64.93;100140.75;5059721;28;19934;-61
2022/03/17 09:59:09;;;;;;;;;;;;;;;8.42;65.52;100143.47;5059395;28;19935;-62
2022/03/17 10:01:36;;;;;;;;;;;;;;;8.57;63.83;100152.81;5059683;28;20228;-63
2022/03/17 10:04:04;;;;;;;;;;;;;;;8.49;64.09;100164.84;5059968;28;20469;-62
2022/03/17 10:06:29;;;;;;;;;;;;;;;8.41;67.63;100167.44;5061378;28;19950;-63
2022/03/17 10:52:13;;;;;;;;;;;;;;;8.65;84.28;100258.91;5065058;28;19927;-61
2022/03/17 10:54:42;;;;;;;;;;;;;;;8.50;89.16;100264.09;5063520;28;19967;-61
2022/03/17 10:57:11;;;;;;;;;;;;;;;8.73;88.32;100271.72;5078417;28;19923;-61
2022/03/17 11:03:31;;;;;;;;;;;;;;;9.01;94.36;100282.72;4970855;28;19969;-61
2022/03/17 11:08:45;;;;;;;;;;;;;;;8.84;100.00;100289.66;5009939;28;19929;-61
2022/03/17 11:14:09;;;;;;;;;;;;;;;8.92;100.00;100299.03;4997588;28;19944;-62
2022/03/17 11:32:31;;;;;;;;;;;;;;;9.03;100.00;100319.53;4963416;28;19925;-61
2022/03/17 11:35:07;;;;;;;;;;;;;;;8.87;100.00;100315.31;4961232;28;19961;-61
2022/03/17 11:41:08;;;;;;;;;;;;;;;8.75;100.00;100324.78;4959088;28;19961;-61
2022/03/17 12:11:10;;;;;;;;;;;;;;;8.80;100.00;100355.59;5060167;28;20406;-61
2022/03/17 12:32:05;;;;;;;;;;;;;;;9.33;100.00;100398.22;5060022;28;20385;-60
2022/03/17 12:34:30;;;;;;;;;;;;;;;9.13;100.00;100385.47;5063423;28;19917;-61
2022/03/17 12:36:55;;;;;;;;;;;;;;;9.09;100.00;100395.75;5063025;28;19923;-60
2022/03/17 12:39:28;;;;;;;;;;;;;;;9.64;100.00;100393.75;5035217;28;20382;-60
2022/03/17 12:41:53;;;;;;;;;;;;;;;9.00;100.00;100399.19;5060737;28;19936;-61
2022/03/17 12:44:22;;;;;;;;;;;;;;;9.11;100.00;100394.88;5054500;28;20520;-59
2022/03/17 12:46:48;;;;;;;;;;;;;;;8.91;100.00;100406.94;5058416;28;20508;-61
2022/03/17 12:49:13;;;;;;;;;;;;;;;8.98;100.00;100411.19;5057318;28;19923;-60
2022/03/17 12:51:38;;;;;;;;;;;;;;;9.43;100.00;100415.31;5061084;28;19920;-61
2022/03/17 12:54:03;;;;;;;;;;;;;;;9.35;100.00;100417.09;5061820;28;19920;-60
2022/03/17 12:56:29;;;;;;;;;;;;;;;9.39;100.00;100423.03;5062127;28;19920;-60
2022/03/17 12:58:54;;;;;;;;;;;;;;;9.39;100.00;100423.03;5062597;28;20927;-60
2022/03/17 13:01:20;;;;;;;;;;;;;;;9.29;100.00;100426.53;5059828;28;20008;-60
2022/03/17 13:03:47;;;;;;;;;;;;;;;9.31;100.00;100420.53;5062363;28;19920;-59
2022/03/17 13:08:57;;;;;;;;;;;;;;;9.19;100.00;100430.81;5074302;28;19936;-60
2022/03/17 13:14:20;;;;;;;;;;;;;;;8.88;100.00;100430.09;5055936;28;19972;-61
2022/03/17 13:16:46;;;;;;;;;;;;;;;8.91;100.00;100435.19;5072244;28;19920;-61
2022/03/17 13:19:11;;;;;;;;;;;;;;;9.03;100.00;100440.28;5026596;28;19931;-60
2022/03/17 13:21:37;;;;;;;;;;;;;;;8.87;100.00;100438.63;5050469;28;19943;-60
2022/03/17 13:24:13;;;;;;;;;;;;;;;9.22;100.00;100435.97;5058296;28;20336;-60
2022/03/17 13:26:38;;;;;;;;;;;;;;;9.21;100.00;100445.41;5072943;28;20074;-59
2022/03/17 13:29:04;;;;;;;;;;;;;;;9.34;100.00;100445.34;5053330;28;20382;-60
2022/03/17 13:31:37;;;;;;;;;;;;;;;9.60;100.00;100453.81;5057838;28;19927;-60
2022/03/17 13:34:02;;;;;;;;;;;;;;;10.39;100.00;100451.63;5058740;28;19928;-60
2022/03/17 13:42:36;;;;;;;;;;;;;;;9.70;100.00;100458.94;5046111;28;19924;-59
2022/03/17 13:45:02;;;;;;;;;;;;;;;9.70;100.00;100453.78;5055555;28;19920;-60
2022/03/17 13:47:28;;;;;;;;;;;;;;;9.79;100.00;100459.72;5056372;28;19924;-60
2022/03/17 13:50:12;;;;;;;;;;;;;;;10.41;100.00;100459.34;5057318;28;20189;-59
2022/03/17 13:52:38;;;;;;;;;;;;;;;10.42;100.00;100461.03;5057294;28;19921;-60
2022/03/17 13:55:11;;;;;;;;;;;;;;;10.12;100.00;100459.53;5058240;28;19922;-60
2022/03/17 13:57:39;;;;;;;;;;;;;;;10.23;100.00;100455.16;5054141;28;19927;-58
2022/03/17 14:00:43;;;;;;;;;;;;;;;9.99;100.00;100457.03;5056998;28;19931;-61
2022/03/17 14:03:12;;;;;;;;;;;;;;;10.63;100.00;100460.03;5057703;28;19972;-61
2022/03/17 14:05:56;;;;;;;;;;;;;;;10.04;100.00;100463.00;5057436;28;19943;-60
2022/03/17 14:08:22;;;;;;;;;;;;;;;9.92;100.00;100465.66;5038868;28;19925;-60
2022/03/17 14:10:47;;;;;;;;;;;;;;;10.26;100.00;100461.16;5056662;28;20169;-60
2022/03/17 14:13:12;;;;;;;;;;;;;;;9.95;100.00;100462.22;5056360;28;19953;-60
2022/03/17 14:15:38;;;;;;;;;;;;;;;10.56;100.00;100459.25;5057598;28;19924;-59
2022/03/17 14:18:03;;;;;;;;;;;;;;;10.76;100.00;100471.91;5055402;28;19920;-58
2022/03/17 14:20:29;;;;;;;;;;;;;;;10.84;100.00;100470.13;5057802;28;19955;-60
2022/03/17 14:25:38;;;;;;;;;;;;;;;11.45;100.00;100454.88;5056358;28;19932;-60
2022/03/17 14:28:03;;;;;;;;;;;;;;;10.40;100.00;100463.66;5056971;28;19916;-60
2022/03/17 14:30:28;;;;;;;;;;;;;;;10.19;100.00;100468.91;5025940;28;19947;-60
2022/03/17 14:32:54;;;;;;;;;;;;;;;10.12;100.00;100482.69;5054534;28;20425;-60
2022/03/17 14:35:19;;;;;;;;;;;;;;;10.09;100.00;100482.72;5058087;28;19974;-60
2022/03/17 14:37:44;;;;;;;;;;;;;;;9.79;100.00;100484.59;5057928;28;19920;-60
2022/03/17 14:40:10;;;;;;;;;;;;;;;9.97;100.00;100487.06;5057292;28;19924;-60
2022/03/17 14:42:35;;;;;;;;;;;;;;;10.02;100.00;100497.34;5056933;28;20098;-60
2022/03/17 14:45:03;;;;;;;;;;;;;;;10.28;100.00;100492.03;5058187;28;19921;-60
2022/03/17 14:47:29;;;;;;;;;;;;;;;10.19;100.00;100486.94;5055755;28;19921;-60
2022/03/17 14:49:56;;;;;;;;;;;;;;;9.86;100.00;100491.44;5057725;28;19923;-60
2022/03/17 14:52:21;;;;;;;;;;;;;;;9.44;100.00;100508.72;5057092;28;19927;-61
2022/03/17 14:54:46;;;;;;;;;;;;;;;9.56;100.00;100507.84;5041674;28;19921;-60
2022/03/17 14:57:12;;;;;;;;;;;;;;;9.78;100.00;100514.63;5054726;28;19971;-60
2022/03/17 14:59:37;;;;;;;;;;;;;;;10.23;100.00;100511.81;5055149;28;19929;-60
2022/03/17 15:02:05;;;;;;;;;;;;;;;9.99;100.00;100505.06;5088878;28;19974;-59
2022/03/17 15:04:31;;;;;;;;;;;;;;;10.33;100.00;100508.34;5056127;28;19927;-60
2022/03/17 15:06:56;;;;;;;;;;;;;;;9.71;100.00;100507.78;5056520;28;19921;-61
2022/03/17 15:09:21;;;;;;;;;;;;;;;9.90;100.00;100511.13;5057952;28;20442;-60
2022/03/17 15:11:47;;;;;;;;;;;;;;;9.95;100.00;100511.97;5057597;28;19943;-59
2022/03/17 15:14:13;;;;;;;;;;;;;;;9.50;100.00;100513.88;5057714;28;19957;-59
2022/03/17 15:16:38;;;;;;;;;;;;;;;9.41;100.00;100513.88;5055666;28;19925;-59
2022/03/17 15:19:03;;;;;;;;;;;;;;;9.41;100.00;100511.31;5056952;28;19932;-59
2022/03/17 15:21:29;;;;;;;;;;;;;;;9.83;100.00;100515.47;5054267;28;20362;-59
2022/03/17 15:23:54;;;;;;;;;;;;;;;9.91;100.00;100515.41;5046449;28;19963;-59
2022/03/17 15:26:19;;;;;;;;;;;;;;;9.82;100.00;100518.03;5057163;28;20377;-60
2022/03/17 15:31:28;;;;;;;;;;;;;;;9.60;100.00;100525.84;5060635;28;19954;-60
2022/03/17 15:33:53;;;;;;;;;;;;;;;9.82;100.00;100520.59;5061853;28;19920;-59
2022/03/17 15:36:19;;;;;;;;;;;;;;;9.99;100.00;100526.53;5061056;28;20442;-60
2022/03/17 15:38:46;;;;;;;;;;;;;;;10.16;100.00;100530.72;5060892;28;19966;-60
2022/03/17 15:41:12;;;;;;;;;;;;;;;9.72;100.00;100529.25;5055955;28;19971;-60
2022/03/17 15:43:38;;;;;;;;;;;;;;;9.59;100.00;100531.84;5058929;28;19921;-60
2022/03/17 15:46:03;;;;;;;;;;;;;;;10.00;100.00;100535.94;5061068;28;20684;-60
2022/03/17 15:48:28;;;;;;;;;;;;;;;9.94;100.00;100535.13;5059936;28;19928;-60
2022/03/17 15:50:54;;;;;;;;;;;;;;;10.09;100.00;100542.78;5060679;28;19928;-59
2022/03/17 15:53:22;;;;;;;;;;;;;;;9.95;100.00;100550.56;5048456;28;20545;-59
2022/03/17 15:55:47;;;;;;;;;;;;;;;10.25;100.00;100551.28;5058575;28;19969;-60
2022/03/17 15:58:13;;;;;;;;;;;;;;;9.94;100.00;100542.84;5056427;28;19912;-60
2022/03/17 16:03:43;;;;;;;;;;;;;;;10.26;100.00;100561.56;5057009;28;19947;-61
2022/03/17 16:06:08;;;;;;;;;;;;;;;9.89;100.00;100563.44;5056764;28;19928;-60
2022/03/17 16:08:34;;;;;;;;;;;;;;;9.77;100.00;100569.50;5046199;28;19943;-59
2022/03/17 16:16:28;;;;;;;;;;;;;;;10.69;100.00;100568.19;5060030;28;19932;-59